Time;durP1;ratioP1;P1;durP2;ratioP2;P2;SDS_P1;SDS_P2;PMS_P1;PMS_P2;Temp;Humidity;BMP_temperature;BMP_pressure;BME280_temperature;BME280_humidity;BME280_pressure;Samples;Min_cycle;Max_cycle;Signal;HPM_P1;HPM_P2
2021/07/17 00:01:37;;;;;;;35.13;11.77;;;16.30;99.90;;;;;;5094776;28;20261;-78
2021/07/17 00:04:03;;;;;;;26.80;10.93;;;16.20;99.90;;;;;;5084150;28;20186;-79
2021/07/17 00:06:29;;;;;;;31.55;11.30;;;16.20;99.90;;;;;;5039860;28;20206;-79
2021/07/17 00:08:55;;;;;;;21.67;10.10;;;16.10;99.90;;;;;;5074613;28;20225;-79
2021/07/17 00:11:21;;;;;;;35.83;10.68;;;16.10;99.90;;;;;;5069538;28;20166;-79
2021/07/17 00:13:49;;;;;;;44.47;13.40;;;16.10;99.90;;;;;;5074914;28;20542;-80
2021/07/17 00:16:26;;;;;;;20.27;10.52;;;16.10;99.90;;;;;;5080746;28;20174;-79
2021/07/17 00:18:52;;;;;;;36.78;11.90;;;16.10;99.90;;;;;;5040930;28;20616;-79
2021/07/17 00:21:18;;;;;;;28.88;11.50;;;16.10;99.90;;;;;;5074369;28;20208;-79
2021/07/17 00:23:44;;;;;;;32.83;11.88;;;16.10;99.90;;;;;;5044669;28;20178;-79
2021/07/17 00:26:09;;;;;;;33.05;12.38;;;16.10;99.90;;;;;;5048128;28;20225;-80
2021/07/17 00:28:35;;;;;;;27.58;11.65;;;16.00;99.90;;;;;;5074237;28;20171;-78
2021/07/17 00:31:00;;;;;;;33.47;12.05;;;16.00;99.90;;;;;;5073984;28;20167;-83
2021/07/17 00:33:26;;;;;;;26.13;11.73;;;16.00;99.90;;;;;;5075101;28;20637;-80
2021/07/17 00:35:51;;;;;;;32.10;11.13;;;16.00;99.90;;;;;;5056040;28;20641;-79
2021/07/17 00:38:17;;;;;;;25.75;10.93;;;16.00;99.90;;;;;;5056077;28;20252;-79
2021/07/17 00:40:43;;;;;;;32.70;12.18;;;16.00;99.90;;;;;;5056452;28;20498;-79
2021/07/17 00:43:08;;;;;;;33.95;11.63;;;16.00;99.90;;;;;;5075408;28;20220;-79
2021/07/17 00:45:34;;;;;;;23.73;10.95;;;16.00;99.90;;;;;;5059151;28;20715;-79
2021/07/17 00:47:59;;;;;;;35.85;13.48;;;15.90;99.90;;;;;;5059308;28;20184;-79
2021/07/17 00:50:27;;;;;;;33.83;12.45;;;15.90;99.90;;;;;;5055877;28;20178;-79
2021/07/17 00:52:52;;;;;;;25.67;11.20;;;16.00;99.90;;;;;;5039920;28;20654;-79
2021/07/17 00:55:21;;;;;;;21.08;11.57;;;16.00;99.90;;;;;;5093111;28;20264;-79
2021/07/17 00:57:48;;;;;;;31.75;12.95;;;16.00;99.90;;;;;;5093329;28;20236;-79
2021/07/17 01:00:15;;;;;;;33.95;13.88;;;16.00;99.90;;;;;;5093659;28;20235;-79
2021/07/17 01:03:09;;;;;;;37.28;13.85;;;16.00;99.90;;;;;;5091862;28;20169;-79
2021/07/17 01:05:36;;;;;;;28.88;11.73;;;15.90;99.90;;;;;;5094038;28;20651;-79
2021/07/17 01:08:02;;;;;;;32.92;13.13;;;15.90;99.90;;;;;;5076128;28;20596;-79
2021/07/17 01:10:28;;;;;;;28.08;12.18;;;15.90;99.90;;;;;;5093890;28;20169;-79
2021/07/17 01:12:54;;;;;;;21.90;12.70;;;15.90;99.90;;;;;;5074017;28;20175;-79
2021/07/17 01:15:20;;;;;;;35.33;12.80;;;15.80;99.90;;;;;;5093806;28;20166;-79
2021/07/17 01:17:47;;;;;;;32.25;12.98;;;15.80;99.90;;;;;;5093444;28;20235;-79
2021/07/17 01:20:16;;;;;;;39.22;14.07;;;15.80;99.90;;;;;;5058868;28;20188;-79
2021/07/17 01:22:42;;;;;;;27.65;10.98;;;15.80;99.90;;;;;;5092203;28;20179;-79
2021/07/17 01:25:11;;;;;;;35.20;12.75;;;15.80;99.90;;;;;;5093617;28;20573;-79
2021/07/17 01:27:38;;;;;;;31.65;13.10;;;15.80;99.90;;;;;;5082200;28;20252;-79
2021/07/17 01:30:13;;;;;;;34.40;12.30;;;15.70;99.90;;;;;;5055447;28;20232;-80
2021/07/17 01:32:45;;;;;;;30.98;12.73;;;15.70;99.90;;;;;;5055644;28;20163;-79
2021/07/17 01:35:11;;;;;;;31.70;12.20;;;15.70;99.90;;;;;;5073503;28;20221;-79
2021/07/17 01:37:37;;;;;;;21.88;11.52;;;15.70;99.90;;;;;;5075161;28;20166;-79
2021/07/17 01:40:05;;;;;;;34.65;12.90;;;15.70;99.90;;;;;;5077325;28;20170;-79
2021/07/17 01:42:35;;;;;;;22.50;11.35;;;15.60;99.90;;;;;;5078512;28;20165;-79
2021/07/17 01:45:00;;;;;;;31.33;13.15;;;15.50;99.90;;;;;;5077342;28;20200;-79
2021/07/17 01:47:26;;;;;;;25.23;12.73;;;15.50;99.90;;;;;;5042936;28;20253;-79
2021/07/17 01:49:51;;;;;;;26.17;12.65;;;15.50;99.90;;;;;;5076981;28;20582;-78
2021/07/17 01:52:17;;;;;;;32.55;15.40;;;15.40;99.90;;;;;;5076943;28;20170;-80
2021/07/17 01:54:43;;;;;;;33.38;14.40;;;15.40;99.90;;;;;;5067549;28;20193;-79
2021/07/17 01:57:09;;;;;;;30.30;13.57;;;15.40;99.90;;;;;;5072664;28;20555;-79
2021/07/17 01:59:39;;;;;;;35.90;12.65;;;15.40;99.90;;;;;;5077061;28;20171;-79
2021/07/17 02:02:08;;;;;;;32.88;13.23;;;15.50;99.90;;;;;;5077039;28;20175;-79
2021/07/17 02:04:34;;;;;;;32.90;13.85;;;15.40;99.90;;;;;;5090286;28;20165;-79
2021/07/17 02:07:00;;;;;;;24.63;13.80;;;15.50;99.90;;;;;;5076365;28;20229;-78
2021/07/17 02:09:26;;;;;;;27.02;13.65;;;15.60;99.90;;;;;;5058983;28;20261;-79
2021/07/17 02:11:52;;;;;;;32.28;13.48;;;15.50;99.90;;;;;;5058890;28;20210;-79
2021/07/17 02:14:17;;;;;;;25.88;13.43;;;15.40;99.90;;;;;;5077801;28;20174;-80
2021/07/17 02:16:43;;;;;;;33.88;13.88;;;15.50;99.90;;;;;;5076719;28;20174;-79
2021/07/17 02:19:21;;;;;;;32.97;13.20;;;15.40;99.90;;;;;;5076956;28;20644;-78
2021/07/17 02:21:53;;;;;;;28.25;12.82;;;15.30;99.90;;;;;;5076199;28;20177;-79
2021/07/17 02:24:20;;;;;;;32.67;14.10;;;15.30;99.90;;;;;;5077895;28;20202;-79
2021/07/17 02:26:46;;;;;;;23.92;12.30;;;15.30;99.90;;;;;;5059707;28;20199;-79
2021/07/17 02:29:13;;;;;;;37.05;15.18;;;15.30;99.90;;;;;;5076055;28;20171;-79
2021/07/17 02:31:41;;;;;;;21.85;13.30;;;15.30;99.90;;;;;;5076503;28;20225;-78
2021/07/17 02:34:08;;;;;;;28.80;12.80;;;15.30;99.90;;;;;;5059559;28;20533;-79
2021/07/17 02:36:33;;;;;;;36.13;15.25;;;15.30;99.90;;;;;;5076205;28;20518;-79
2021/07/17 02:38:59;;;;;;;28.77;13.75;;;15.30;99.90;;;;;;5076311;28;20175;-79
2021/07/17 02:41:25;;;;;;;43.33;16.00;;;15.40;99.90;;;;;;5041743;28;20697;-79
2021/07/17 02:43:52;;;;;;;49.08;17.30;;;15.50;99.90;;;;;;5055348;28;20182;-79
2021/07/17 02:46:18;;;;;;;43.67;17.98;;;15.60;99.90;;;;;;5058119;28;20538;-78
2021/07/17 02:48:44;;;;;;;51.75;20.88;;;15.70;99.90;;;;;;5041522;28;20182;-79
2021/07/17 02:51:10;;;;;;;48.47;19.75;;;15.80;99.90;;;;;;5041797;28;20634;-79
2021/07/17 02:53:35;;;;;;;59.05;22.35;;;16.00;99.90;;;;;;5064953;28;20178;-78
2021/07/17 02:56:01;;;;;;;56.60;21.52;;;16.10;99.90;;;;;;5076834;28;20179;-79
2021/07/17 02:58:27;;;;;;;48.72;21.30;;;16.30;99.90;;;;;;5076200;28;20186;-79
2021/07/17 03:00:55;;;;;;;55.13;20.65;;;16.40;99.90;;;;;;5076185;28;20252;-79
2021/07/17 03:03:22;;;;;;;25.88;14.98;;;16.50;99.90;;;;;;5058284;28;20221;-79
2021/07/17 03:05:48;;;;;;;21.42;12.48;;;16.50;99.90;;;;;;5087694;28;20190;-79
2021/07/17 03:08:19;;;;;;;34.45;13.98;;;16.50;99.90;;;;;;5096231;28;20631;-79
2021/07/17 03:10:45;;;;;;;22.70;12.93;;;16.50;99.90;;;;;;5078521;28;20491;-78
2021/07/17 03:13:11;;;;;;;36.42;13.63;;;16.50;99.90;;;;;;5085191;28;20189;-79
2021/07/17 03:15:36;;;;;;;26.65;11.63;;;16.50;99.90;;;;;;5079700;28;20174;-79
2021/07/17 03:18:02;;;;;;;23.40;12.18;;;16.50;99.90;;;;;;5077542;28;20314;-79
2021/07/17 03:20:28;;;;;;;30.52;11.98;;;16.50;99.90;;;;;;5095852;28;20163;-79
2021/07/17 03:22:54;;;;;;;25.83;11.10;;;16.50;99.90;;;;;;5069065;28;20171;-79
2021/07/17 03:25:19;;;;;;;31.15;12.73;;;16.50;99.90;;;;;;5041043;28;20248;-82
2021/07/17 03:27:45;;;;;;;33.58;12.82;;;16.50;99.90;;;;;;5091120;28;20577;-79
2021/07/17 03:30:11;;;;;;;33.28;13.57;;;16.60;99.90;;;;;;5077291;28;20170;-79
2021/07/17 03:32:37;;;;;;;25.02;11.38;;;16.60;99.90;;;;;;5094936;28;20170;-78
2021/07/17 03:35:04;;;;;;;31.42;11.32;;;16.60;99.90;;;;;;5095589;28;20218;-79
2021/07/17 03:37:30;;;;;;;25.02;11.65;;;16.60;99.90;;;;;;5086988;28;20189;-79
2021/07/17 03:39:56;;;;;;;17.65;10.55;;;16.60;99.90;;;;;;5057302;28;20625;-81
2021/07/17 03:42:22;;;;;;;31.45;13.90;;;16.60;99.90;;;;;;5059786;28;20179;-79
2021/07/17 03:44:47;;;;;;;43.97;14.82;;;16.60;99.90;;;;;;5076831;28;20177;-78
2021/07/17 03:47:13;;;;;;;26.98;12.75;;;16.70;99.90;;;;;;5094718;28;20169;-81
2021/07/17 03:49:39;;;;;;;24.73;12.23;;;16.60;99.90;;;;;;5057050;28;20613;-78
2021/07/17 03:52:05;;;;;;;25.10;14.38;;;16.60;99.90;;;;;;5074893;28;20672;-79
2021/07/17 03:54:31;;;;;;;45.92;16.50;;;16.60;99.90;;;;;;5089706;28;20176;-79
2021/07/17 03:56:56;;;;;;;42.20;16.65;;;16.70;99.90;;;;;;5076970;28;20617;-78
2021/07/17 03:59:22;;;;;;;40.75;16.73;;;16.80;99.90;;;;;;5080286;28;20218;-79
2021/07/17 04:01:48;;;;;;;37.25;15.38;;;16.90;99.90;;;;;;5040368;28;20175;-79
2021/07/17 04:04:13;;;;;;;30.38;14.35;;;17.00;99.90;;;;;;5092257;28;20628;-79
2021/07/17 04:06:40;;;;;;;51.67;17.45;;;17.00;99.90;;;;;;5076613;28;20661;-78
2021/07/17 04:09:06;;;;;;;43.92;17.25;;;16.90;99.90;;;;;;5089944;28;20621;-78
2021/07/17 04:11:33;;;;;;;42.78;16.73;;;17.00;99.90;;;;;;5074729;28;20273;-78
2021/07/17 04:13:58;;;;;;;35.75;17.13;;;17.10;99.90;;;;;;5071695;28;20169;-79
2021/07/17 04:16:24;;;;;;;50.72;17.10;;;17.10;99.90;;;;;;5094717;28;20547;-79
2021/07/17 04:18:50;;;;;;;33.08;15.45;;;17.20;99.90;;;;;;5076793;28;20660;-79
2021/07/17 04:21:15;;;;;;;40.63;17.95;;;17.20;99.90;;;;;;5074818;28;20174;-79
2021/07/17 04:23:41;;;;;;;44.33;17.70;;;17.20;99.90;;;;;;5086679;28;20560;-80
2021/07/17 04:26:08;;;;;;;40.20;17.13;;;17.20;99.90;;;;;;5082924;28;20196;-79
2021/07/17 04:28:34;;;;;;;55.90;17.80;;;17.30;99.90;;;;;;5074568;28;20205;-78
2021/07/17 04:31:01;;;;;;;43.13;18.33;;;17.30;99.90;;;;;;5090088;28;20685;-79
2021/07/17 04:33:26;;;;;;;45.55;19.85;;;17.40;99.90;;;;;;5065845;28;20623;-78
2021/07/17 04:35:52;;;;;;;55.40;20.17;;;17.40;99.90;;;;;;5075572;28;20175;-78
2021/07/17 04:38:19;;;;;;;58.42;19.77;;;17.50;99.90;;;;;;5074250;28;20605;-79
2021/07/17 04:40:45;;;;;;;50.63;20.25;;;17.50;99.90;;;;;;5056764;28;20178;-79
2021/07/17 04:43:10;;;;;;;53.83;20.17;;;17.60;99.90;;;;;;5081635;28;20174;-80
2021/07/17 04:45:36;;;;;;;43.38;17.65;;;17.70;99.90;;;;;;5094193;28;20228;-79
2021/07/17 04:48:04;;;;;;;58.10;20.15;;;17.70;99.90;;;;;;5093896;28;20166;-79
2021/07/17 04:50:36;;;;;;;49.30;19.48;;;17.80;99.90;;;;;;5078739;28;20202;-79
2021/07/17 04:53:02;;;;;;;55.75;18.73;;;17.80;99.90;;;;;;5080628;28;20158;-79
2021/07/17 04:55:28;;;;;;;52.67;18.92;;;17.80;99.90;;;;;;5055786;28;20205;-78
2021/07/17 04:57:54;;;;;;;53.58;19.67;;;17.90;99.90;;;;;;5055780;28;20601;-79
2021/07/17 05:00:20;;;;;;;52.95;18.58;;;17.90;99.90;;;;;;5039309;28;20174;-79
2021/07/17 05:02:50;;;;;;;40.47;16.23;;;18.00;99.90;;;;;;5085191;28;20174;-79
2021/07/17 05:05:20;;;;;;;50.72;18.38;;;18.00;99.90;;;;;;5058962;28;20674;-79
2021/07/17 05:07:47;;;;;;;45.17;18.48;;;18.10;99.90;;;;;;5059064;28;20265;-79
2021/07/17 05:10:14;;;;;;;49.97;18.40;;;18.10;99.90;;;;;;5075557;28;20173;-79
2021/07/17 05:12:39;;;;;;;52.83;19.17;;;18.30;99.90;;;;;;5074420;28;20178;-78
2021/07/17 05:15:07;;;;;;;44.42;17.38;;;18.40;99.90;;;;;;5093754;28;20177;-79
2021/07/17 05:17:33;;;;;;;47.25;16.40;;;18.40;99.90;;;;;;5093818;28;20166;-79
2021/07/17 05:19:58;;;;;;;34.80;16.83;;;18.40;99.90;;;;;;5093774;28;20231;-79
2021/07/17 05:22:24;;;;;;;50.05;19.60;;;18.50;99.90;;;;;;5073793;28;20169;-79
2021/07/17 05:24:50;;;;;;;48.67;16.88;;;18.60;99.90;;;;;;5059026;28;20660;-79
2021/07/17 05:27:15;;;;;;;36.15;15.30;;;18.70;99.90;;;;;;5055613;28;20185;-78
2021/07/17 05:29:41;;;;;;;41.70;16.02;;;18.80;99.90;;;;;;5055860;28;20182;-78
2021/07/17 05:32:07;;;;;;;45.35;16.13;;;18.80;99.90;;;;;;5074499;28;20186;-79
2021/07/17 05:34:32;;;;;;;47.00;15.70;;;18.90;99.90;;;;;;5073160;28;20528;-79
2021/07/17 05:36:58;;;;;;;35.42;15.23;;;18.80;99.90;;;;;;5073467;28;20541;-79
2021/07/17 05:39:23;;;;;;;37.92;14.93;;;18.90;99.90;;;;;;5055410;28;20175;-79
2021/07/17 05:41:49;;;;;;;39.92;14.65;;;19.10;99.90;;;;;;5039910;28;20178;-80
2021/07/17 05:44:14;;;;;;;41.28;14.73;;;19.20;99.90;;;;;;5055396;28;20177;-79
2021/07/17 05:46:40;;;;;;;37.35;14.00;;;19.40;99.90;;;;;;5022212;28;20606;-79
2021/07/17 05:49:06;;;;;;;34.05;14.30;;;19.50;99.90;;;;;;5055569;28;20265;-78
2021/07/17 05:51:31;;;;;;;34.47;12.80;;;19.70;99.90;;;;;;5038693;28;20536;-78
2021/07/17 05:53:57;;;;;;;41.20;13.07;;;19.70;99.90;;;;;;5061930;28;20519;-79
2021/07/17 05:56:23;;;;;;;40.22;13.82;;;19.70;99.90;;;;;;5075178;28;20182;-79
2021/07/17 05:58:48;;;;;;;28.40;13.20;;;19.70;99.90;;;;;;5058179;28;20190;-82
2021/07/17 06:01:14;;;;;;;39.08;13.05;;;19.80;99.90;;;;;;5093332;28;20171;-79
2021/07/17 06:03:41;;;;;;;36.65;11.93;;;19.90;99.90;;;;;;5076405;28;20189;-79
2021/07/17 06:06:07;;;;;;;23.98;10.68;;;19.90;99.90;;;;;;5038654;28;20199;-79
2021/07/17 06:08:33;;;;;;;40.45;12.63;;;20.00;99.90;;;;;;5072758;28;20654;-79
2021/07/17 06:10:59;;;;;;;38.00;12.20;;;20.10;99.90;;;;;;5038436;28;20182;-79
2021/07/17 06:13:24;;;;;;;36.08;12.68;;;20.20;99.90;;;;;;5070148;28;20162;-80
2021/07/17 06:15:50;;;;;;;42.38;12.30;;;20.40;99.90;;;;;;5093169;28;20578;-79
2021/07/17 06:18:16;;;;;;;29.85;10.63;;;20.50;99.90;;;;;;5075057;28;20166;-79
2021/07/17 06:20:41;;;;;;;35.15;11.68;;;20.60;99.90;;;;;;5092816;28;20174;-80
2021/07/17 06:23:07;;;;;;;35.40;11.88;;;20.60;99.90;;;;;;5084928;28;20190;-79
2021/07/17 06:25:33;;;;;;;25.58;10.88;;;20.70;99.90;;;;;;5078609;28;20190;-79
2021/07/17 06:27:58;;;;;;;40.92;11.52;;;21.00;99.90;;;;;;5059270;28;20598;-79
2021/07/17 06:30:24;;;;;;;44.00;12.98;;;21.10;99.90;;;;;;5058562;28;20173;-79
2021/07/17 06:32:49;;;;;;;31.80;10.50;;;21.20;99.90;;;;;;5088383;28;20205;-79
2021/07/17 06:35:15;;;;;;;31.67;10.52;;;21.40;99.90;;;;;;5078651;28;20215;-80
2021/07/17 06:37:41;;;;;;;23.67;9.88;;;21.40;99.90;;;;;;5061674;28;20170;-80
2021/07/17 06:40:08;;;;;;;22.48;9.30;;;21.70;99.90;;;;;;5078736;28;20530;-79
2021/07/17 06:42:49;;;;;;;31.02;9.68;;;22.00;99.90;;;;;;5068236;28;20578;-80
2021/07/17 06:45:19;;;;;;;24.27;9.07;;;22.30;99.90;;;;;;5076241;28;20186;-80
2021/07/17 06:47:45;;;;;;;31.55;8.80;;;22.60;99.90;;;;;;5075807;28;20517;-80
2021/07/17 06:50:13;;;;;;;22.38;8.02;;;23.00;99.90;;;;;;5058106;28;20636;-79
2021/07/17 06:52:39;;;;;;;22.25;7.05;;;23.80;99.90;;;;;;5077236;28;20171;-82
2021/07/17 06:55:07;;;;;;;22.17;7.15;;;25.20;99.90;;;;;;5074456;28;20182;-80
2021/07/17 06:57:36;;;;;;;20.67;6.63;;;25.80;99.90;;;;;;5058292;28;20573;-80
2021/07/17 07:00:07;;;;;;;21.33;7.47;;;26.50;99.90;;;;;;5058028;28;20356;-80
2021/07/17 07:02:33;;;;;;;25.00;6.32;;;27.10;99.90;;;;;;5076891;28;20178;-80
2021/07/17 07:04:59;;;;;;;22.50;6.45;;;27.30;99.90;;;;;;5058197;28;20175;-80
2021/07/17 07:07:25;;;;;;;22.48;6.43;;;26.90;99.90;;;;;;5041356;28;20200;-81
2021/07/17 07:09:50;;;;;;;30.38;7.28;;;26.40;99.90;;;;;;5057789;28;20171;-80
2021/07/17 07:12:16;;;;;;;18.08;6.30;;;25.30;99.90;;;;;;5076934;28;20182;-80
2021/07/17 07:14:42;;;;;;;23.65;7.10;;;24.30;99.90;;;;;;5058093;28;20167;-81
2021/07/17 07:17:08;;;;;;;17.77;6.55;;;23.70;99.90;;;;;;5057578;28;20183;-80
2021/07/17 07:19:34;;;;;;;19.60;6.75;;;23.50;99.90;;;;;;5057854;28;20171;-80
2021/07/17 07:21:59;;;;;;;18.85;6.22;;;23.20;99.90;;;;;;5058763;28;20175;-84
2021/07/17 07:24:25;;;;;;;19.23;6.72;;;22.90;99.90;;;;;;5075596;28;20583;-79
2021/07/17 07:26:52;;;;;;;21.38;7.18;;;22.90;99.90;;;;;;5057734;28;20653;-79
2021/07/17 07:29:17;;;;;;;21.20;6.97;;;22.70;99.90;;;;;;5069948;28;20504;-79
2021/07/17 07:31:43;;;;;;;15.70;6.03;;;23.10;99.90;;;;;;5060162;28;20272;-79
2021/07/17 07:34:09;;;;;;;18.98;6.18;;;24.00;99.90;;;;;;5069048;28;20178;-80
2021/07/17 07:36:34;;;;;;;16.02;6.50;;;24.30;99.90;;;;;;5078409;28;20174;-79
2021/07/17 07:39:00;;;;;;;23.52;6.07;;;23.60;99.90;;;;;;5095576;28;20223;-79
2021/07/17 07:41:26;;;;;;;22.85;6.47;;;23.40;99.90;;;;;;5065178;28;20221;-80
2021/07/17 07:43:51;;;;;;;10.73;4.68;;;24.00;99.90;;;;;;5057700;28;20178;-79
2021/07/17 07:46:17;;;;;;;13.30;5.25;;;26.60;99.90;;;;;;5077938;28;20317;-79
2021/07/17 07:48:42;;;;;;;15.45;5.32;;;29.10;99.90;;;;;;5061336;28;20173;-80
2021/07/17 07:51:11;;;;;;;17.27;5.22;;;32.10;99.90;;;;;;5062467;28;20174;-80
2021/07/17 07:53:38;;;;;;;16.95;5.80;;;32.10;99.90;;;;;;5077836;28;20182;-79
2021/07/17 07:56:03;;;;;;;20.17;4.65;;;32.90;99.90;;;;;;5075117;28;20536;-79
2021/07/17 07:58:29;;;;;;;14.00;4.90;;;33.80;99.90;;;;;;5056451;28;20193;-82
2021/07/17 08:00:56;;;;;;;19.42;5.45;;;33.40;99.90;;;;;;5080238;28;20185;-80
2021/07/17 08:03:21;;;;;;;16.15;4.72;;;34.30;99.90;;;;;;5074468;28;20182;-81
2021/07/17 08:05:47;;;;;;;14.55;4.68;;;33.50;99.90;;;;;;5061414;28;20655;-80
2021/07/17 08:08:13;;;;;;;11.07;4.03;;;32.10;99.90;;;;;;5068229;28;20170;-80
2021/07/17 08:10:39;;;;;;;12.63;5.25;;;31.10;99.90;;;;;;5044853;28;20197;-81
2021/07/17 08:13:06;;;;;;;15.18;5.03;;;30.60;99.90;;;;;;5090142;28;20186;-81
2021/07/17 08:15:32;;;;;;;17.77;5.55;;;30.80;99.90;;;;;;5076482;28;20320;-79
2021/07/17 08:17:58;;;;;;;22.85;5.22;;;31.00;99.90;;;;;;5075976;28;20171;-80
2021/07/17 08:20:25;;;;;;;17.20;4.43;;;30.20;99.90;;;;;;5095011;28;20177;-80
2021/07/17 08:22:51;;;;;;;17.25;5.05;;;30.20;99.90;;;;;;5065644;28;20179;-80
2021/07/17 08:25:18;;;;;;;14.25;4.95;;;32.90;99.90;;;;;;5058345;28;20206;-80
2021/07/17 08:27:44;;;;;;;16.30;5.50;;;33.10;99.90;;;;;;5091531;28;20178;-80
2021/07/17 08:30:11;;;;;;;20.80;5.90;;;34.00;99.90;;;;;;5096149;28;20188;-79
2021/07/17 08:32:38;;;;;;;17.58;5.57;;;34.60;99.90;;;;;;5071083;28;20567;-79
2021/07/17 08:35:05;;;;;;;17.42;5.38;;;34.20;99.90;;;;;;5062445;28;20612;-78
2021/07/17 08:37:30;;;;;;;24.90;5.57;;;35.20;99.90;;;;;;5057851;28;20188;-79
2021/07/17 08:39:56;;;;;;;13.15;4.47;;;36.30;99.90;;;;;;5082466;28;20173;-79
2021/07/17 08:42:25;;;;;;;16.13;4.97;;;36.80;99.90;;;;;;5044723;28;20212;-79
2021/07/17 08:44:54;;;;;;;18.20;4.45;;;36.90;99.90;;;;;;5094739;28;20176;-79
2021/07/17 08:47:20;;;;;;;24.77;5.47;;;36.00;99.90;;;;;;5091158;28;20250;-79
2021/07/17 08:49:47;;;;;;;14.85;4.43;;;36.60;99.90;;;;;;5094066;28;20174;-79
2021/07/17 08:52:13;;;;;;;16.77;4.80;;;37.80;99.90;;;;;;5078674;28;20177;-81
2021/07/17 08:54:40;;;;;;;16.00;4.63;;;38.10;99.10;;;;;;5043015;28;20278;-80
2021/07/17 08:57:10;;;;;;;10.48;4.22;;;37.90;98.60;;;;;;5083072;28;20197;-81
2021/07/17 08:59:39;;;;;;;16.38;4.28;;;36.90;98.20;;;;;;5094684;28;20166;-82
2021/07/17 09:02:06;;;;;;;11.13;4.05;;;36.50;99.50;;;;;;5064832;28;20181;-81
2021/07/17 09:04:32;;;;;;;8.25;3.95;;;37.00;98.20;;;;;;5062252;28;20189;-87
2021/07/17 09:06:57;;;;;;;13.93;4.35;;;36.30;99.30;;;;;;5083312;28;20218;-85
2021/07/17 09:09:36;;;;;;;9.63;4.18;;;35.50;99.90;;;;;;5096803;28;20213;-87
2021/07/17 09:12:01;;;;;;;12.82;4.25;;;37.10;98.20;;;;;;5072257;28;20179;-87
2021/07/17 09:14:38;;;;;;;10.70;3.80;;;37.90;97.20;;;;;;5061208;28;20182;-81
2021/07/17 09:17:04;;;;;;;11.38;3.92;;;38.20;96.90;;;;;;5086650;28;20181;-80
2021/07/17 09:19:31;;;;;;;11.57;4.30;;;39.80;95.30;;;;;;5058311;28;20522;-81
2021/07/17 09:21:56;;;;;;;7.35;3.97;;;40.40;94.00;;;;;;5072742;28;20182;-81
2021/07/17 09:24:22;;;;;;;13.93;4.25;;;39.80;94.70;;;;;;5076746;28;20180;-81
2021/07/17 09:26:58;;;;;;;17.73;3.83;;;39.50;93.60;;;;;;5086307;28;20193;-82
2021/07/17 09:29:36;;;;;;;13.38;3.75;;;40.60;93.40;;;;;;5072976;28;20612;-81
2021/07/17 09:32:03;;;;;;;9.40;3.65;;;39.10;92.80;;;;;;5073387;28;20652;-81
2021/07/17 09:34:31;;;;;;;7.00;3.47;;;39.80;92.70;;;;;;5074416;28;20194;-83
2021/07/17 09:37:09;;;;;;;11.80;3.42;;;40.90;90.90;;;;;;5079179;28;20627;-80
2021/07/17 09:39:46;;;;;;;8.13;3.30;;;39.60;91.80;;;;;;5073696;28;20170;-80
2021/07/17 09:42:17;;;;;;;14.85;4.50;;;40.10;93.00;;;;;;5056966;28;20170;-81
2021/07/17 09:44:47;;;;;;;6.63;3.40;;;41.70;91.10;;;;;;5070214;28;20188;-82
2021/07/17 09:47:24;;;;;;;8.10;3.97;;;41.60;90.00;;;;;;5071659;28;20276;-81
2021/07/17 09:50:09;;;;;;;9.50;3.65;;;40.40;90.70;;;;;;5060741;28;20173;-90
2021/07/17 09:52:41;;;;;;;14.75;4.18;;;40.90;89.70;;;;;;5092628;28;20622;-82
2021/07/17 09:55:09;;;;;;;12.43;3.83;;;40.50;90.40;;;;;;5093045;28;20158;-81
2021/07/17 09:57:36;;;;;;;9.05;3.72;;;40.00;90.50;;;;;;5088796;28;20185;-82
2021/07/17 10:00:13;;;;;;;9.77;4.00;;;39.20;90.50;;;;;;5059631;28;20246;-81
2021/07/17 10:02:40;;;;;;;11.43;3.50;;;38.80;91.70;;;;;;5077770;28;20212;-84
2021/07/17 10:05:07;;;;;;;9.23;3.50;;;38.90;91.10;;;;;;5076839;28;20182;-82
2021/07/17 10:07:33;;;;;;;8.82;3.67;;;39.20;90.80;;;;;;5090563;28;20227;-82
2021/07/17 10:09:59;;;;;;;11.60;4.38;;;39.60;91.00;;;;;;5095151;28;20224;-82
2021/07/17 10:12:35;;;;;;;10.05;3.97;;;39.00;91.40;;;;;;5093328;28;20768;-81
2021/07/17 10:15:05;;;;;;;12.98;4.05;;;38.60;92.70;;;;;;5077184;28;20230;-83
2021/07/17 10:17:35;;;;;;;13.95;3.95;;;38.10;91.70;;;;;;5058192;28;20650;-82
2021/07/17 10:20:05;;;;;;;9.48;4.32;;;37.70;92.70;;;;;;5070339;28;20182;-80
2021/07/17 10:22:31;;;;;;;12.45;3.97;;;37.20;93.10;;;;;;5077939;28;20196;-80
2021/07/17 10:24:57;;;;;;;16.40;4.55;;;37.40;93.00;;;;;;5061578;28;20635;-80
2021/07/17 10:27:24;;;;;;;13.73;4.35;;;38.00;93.10;;;;;;5068718;28;20190;-81
2021/07/17 10:29:50;;;;;;;8.32;3.63;;;38.50;92.10;;;;;;5077412;28;20635;-81
2021/07/17 10:32:16;;;;;;;5.50;3.50;;;37.80;91.80;;;;;;5076589;28;20219;-88
2021/07/17 10:34:44;;;;;;;8.90;3.30;;;35.50;93.00;;;;;;5068947;28;20189;-87
2021/07/17 10:37:22;;;;;;;10.52;3.88;;;33.00;96.10;;;;;;5076201;28;20180;-82
2021/07/17 10:40:10;;;;;;;12.35;3.88;;;35.10;95.90;;;;;;5058468;28;20170;-80
2021/07/17 10:42:38;;;;;;;7.43;3.70;;;36.50;94.40;;;;;;5083451;28;20174;-81
2021/07/17 10:45:05;;;;;;;8.55;4.07;;;37.10;94.30;;;;;;5081531;28;20217;-81
2021/07/17 10:47:39;;;;;;;11.77;4.57;;;38.90;92.90;;;;;;5076007;28;20178;-81
2021/07/17 10:50:08;;;;;;;12.63;3.40;;;40.50;90.60;;;;;;5089667;28;20180;-81
2021/07/17 10:52:41;;;;;;;8.95;3.72;;;40.50;91.00;;;;;;5095460;28;20177;-81
2021/07/17 10:55:33;;;;;;;10.45;3.72;;;38.50;91.60;;;;;;5095090;28;20188;-81
2021/07/17 10:58:11;;;;;;;14.15;3.58;;;36.80;94.00;;;;;;5074698;28;20193;-81
2021/07/17 11:00:42;;;;;;;17.73;3.63;;;38.70;92.60;;;;;;5060489;28;20264;-81
2021/07/17 11:03:22;;;;;;;13.18;3.40;;;39.80;91.60;;;;;;5074948;28;20261;-84
2021/07/17 11:05:49;;;;;;;15.10;4.25;;;40.60;90.40;;;;;;5088921;28;20244;-80
2021/07/17 11:08:34;;;;;;;8.40;3.88;;;39.90;90.90;;;;;;5096215;28;20222;-81
2021/07/17 11:11:21;;;;;;;12.35;4.43;;;39.50;91.20;;;;;;5094665;28;20185;-81
2021/07/17 11:13:47;;;;;;;8.63;3.75;;;39.80;91.00;;;;;;5080622;28;20174;-80
2021/07/17 11:16:32;;;;;;;9.88;3.63;;;39.60;90.90;;;;;;5081698;28;20177;-81
2021/07/17 11:19:21;;;;;;;9.65;3.28;;;40.80;90.10;;;;;;5057708;28;20631;-84
2021/07/17 11:21:47;;;;;;;7.93;3.67;;;40.10;89.60;;;;;;5065563;28;20651;-84
2021/07/17 11:24:14;;;;;;;6.63;2.95;;;39.10;90.00;;;;;;5066923;28;20182;-83
2021/07/17 11:26:40;;;;;;;14.70;3.63;;;37.30;92.20;;;;;;5057550;28;20205;-83
2021/07/17 11:29:11;;;;;;;8.30;3.35;;;37.70;92.00;;;;;;5045212;28;20202;-84
2021/07/17 11:31:43;;;;;;;10.05;3.38;;;38.00;92.70;;;;;;5041473;28;20511;-88
2021/07/17 11:34:16;;;;;;;12.05;3.53;;;39.60;90.80;;;;;;5074699;28;20261;-84
2021/07/17 11:36:44;;;;;;;6.60;3.30;;;39.80;90.80;;;;;;5080406;28;20233;-83
2021/07/17 11:39:12;;;;;;;9.85;3.22;;;39.90;90.80;;;;;;5075269;28;20241;-83
2021/07/17 11:41:38;;;;;;;16.48;3.72;;;38.90;90.40;;;;;;5056518;28;20175;-84
2021/07/17 11:44:04;;;;;;;9.60;3.45;;;36.80;92.30;;;;;;5056804;28;20178;-83
2021/07/17 11:46:30;;;;;;;6.35;2.65;;;36.20;94.30;;;;;;5075125;28;20189;-84
2021/07/17 11:49:07;;;;;;;6.65;3.05;;;37.90;93.10;;;;;;5057474;28;20265;-82
2021/07/17 11:51:47;;;;;;;7.43;2.70;;;38.90;91.90;;;;;;5060192;28;20581;-84
2021/07/17 11:54:26;;;;;;;10.32;2.63;;;38.20;91.60;;;;;;5075158;28;20155;-84
2021/07/17 11:57:00;;;;;;;10.35;2.55;;;37.90;91.90;;;;;;5073186;28;20200;-83
2021/07/17 11:59:26;;;;;;;6.53;2.50;;;37.80;93.40;;;;;;5057140;28;20255;-83
2021/07/17 12:02:08;;;;;;;8.70;2.60;;;37.30;93.30;;;;;;5075428;28;20273;-83
2021/07/17 12:04:40;;;;;;;4.93;2.65;;;37.00;93.10;;;;;;5059297;28;20232;-83
2021/07/17 12:07:09;;;;;;;7.07;2.90;;;35.50;94.50;;;;;;5077496;28;20210;-84
2021/07/17 12:09:37;;;;;;;8.15;3.00;;;34.30;95.00;;;;;;5094752;28;20615;-83
2021/07/17 12:12:28;;;;;;;10.57;3.40;;;34.20;95.90;;;;;;5091495;28;20528;-83
2021/07/17 12:15:11;;;;;;;8.88;2.45;;;35.50;96.00;;;;;;5083456;28;20754;-83
2021/07/17 12:17:39;;;;;;;11.18;2.53;;;35.50;95.50;;;;;;5074793;28;20257;-82
2021/07/17 12:20:13;;;;;;;6.60;2.70;;;34.70;95.00;;;;;;5082733;28;20627;-83
2021/07/17 12:22:55;;;;;;;8.68;2.40;;;35.30;94.90;;;;;;5076501;28;20256;-83
2021/07/17 12:25:46;;;;;;;5.32;2.78;;;34.60;94.80;;;;;;5067867;28;20206;-84
2021/07/17 12:28:12;;;;;;;7.45;2.40;;;33.50;96.20;;;;;;5056049;28;20182;-83
2021/07/17 12:30:40;;;;;;;12.13;2.67;;;32.40;97.60;;;;;;5056457;28;20185;-84
2021/07/17 12:33:17;;;;;;;7.10;2.80;;;31.70;99.00;;;;;;5056160;28;20174;-81
2021/07/17 12:35:44;;;;;;;6.28;2.60;;;30.30;99.10;;;;;;5081250;28;20284;-82
2021/07/17 12:38:15;;;;;;;8.95;2.40;;;29.30;99.90;;;;;;5076165;28;20223;-81